sensor_id;sensor_type;location;lat;lon;timestamp;P1;durP1;ratioP1;P2;durP2;ratioP2
37633;SDS011;32048;49.902;22.508;2023-01-04T00:01:20;23.00;;;11.77;;
37633;SDS011;32048;49.902;22.508;2023-01-04T00:03:49;18.85;;;11.13;;
37633;SDS011;32048;49.902;22.508;2023-01-04T00:06:16;20.13;;;11.27;;
37633;SDS011;32048;49.902;22.508;2023-01-04T00:08:44;24.73;;;12.18;;
37633;SDS011;32048;49.902;22.508;2023-01-04T00:11:13;20.73;;;12.27;;
37633;SDS011;32048;49.902;22.508;2023-01-04T00:13:46;23.33;;;12.70;;
37633;SDS011;32048;49.902;22.508;2023-01-04T00:16:15;20.57;;;11.50;;
37633;SDS011;32048;49.902;22.508;2023-01-04T00:18:45;24.57;;;12.47;;
37633;SDS011;32048;49.902;22.508;2023-01-04T00:21:13;22.13;;;12.47;;
37633;SDS011;32048;49.902;22.508;2023-01-04T00:23:45;23.60;;;13.33;;
37633;SDS011;32048;49.902;22.508;2023-01-04T00:28:42;24.77;;;12.43;;
37633;SDS011;32048;49.902;22.508;2023-01-04T00:31:19;26.47;;;14.27;;
37633;SDS011;32048;49.902;22.508;2023-01-04T00:33:46;29.03;;;14.80;;
37633;SDS011;32048;49.902;22.508;2023-01-04T00:36:14;27.10;;;14.17;;
37633;SDS011;32048;49.902;22.508;2023-01-04T00:38:41;26.33;;;13.70;;
37633;SDS011;32048;49.902;22.508;2023-01-04T00:41:08;25.20;;;13.60;;
37633;SDS011;32048;49.902;22.508;2023-01-04T00:43:57;23.92;;;13.02;;
37633;SDS011;32048;49.902;22.508;2023-01-04T00:46:25;28.43;;;13.37;;
37633;SDS011;32048;49.902;22.508;2023-01-04T00:48:52;27.67;;;15.80;;
37633;SDS011;32048;49.902;22.508;2023-01-04T00:51:26;26.53;;;14.13;;
37633;SDS011;32048;49.902;22.508;2023-01-04T00:53:55;44.28;;;18.33;;
37633;SDS011;32048;49.902;22.508;2023-01-04T00:56:23;27.92;;;14.75;;
37633;SDS011;32048;49.902;22.508;2023-01-04T00:58:57;23.03;;;11.87;;
37633;SDS011;32048;49.902;22.508;2023-01-04T01:01:28;31.20;;;14.30;;
37633;SDS011;32048;49.902;22.508;2023-01-04T01:03:57;25.70;;;14.83;;
37633;SDS011;32048;49.902;22.508;2023-01-04T01:06:27;31.40;;;14.37;;
37633;SDS011;32048;49.902;22.508;2023-01-04T01:08:55;30.50;;;14.85;;
37633;SDS011;32048;49.902;22.508;2023-01-04T01:11:22;33.73;;;15.23;;
37633;SDS011;32048;49.902;22.508;2023-01-04T01:13:50;30.47;;;14.17;;
37633;SDS011;32048;49.902;22.508;2023-01-04T01:16:19;27.40;;;13.90;;
37633;SDS011;32048;49.902;22.508;2023-01-04T01:19:08;28.27;;;13.33;;
37633;SDS011;32048;49.902;22.508;2023-01-04T01:21:35;37.30;;;15.80;;
37633;SDS011;32048;49.902;22.508;2023-01-04T01:24:04;44.17;;;17.67;;
37633;SDS011;32048;49.902;22.508;2023-01-04T01:26:31;40.10;;;18.40;;
37633;SDS011;32048;49.902;22.508;2023-01-04T01:28:58;37.43;;;17.03;;
37633;SDS011;32048;49.902;22.508;2023-01-04T01:31:26;34.60;;;17.20;;
37633;SDS011;32048;49.902;22.508;2023-01-04T01:36:24;30.67;;;15.27;;
37633;SDS011;32048;49.902;22.508;2023-01-04T01:38:52;28.70;;;17.93;;
37633;SDS011;32048;49.902;22.508;2023-01-04T01:41:24;32.47;;;15.93;;
37633;SDS011;32048;49.902;22.508;2023-01-04T01:43:56;34.87;;;15.97;;
37633;SDS011;32048;49.902;22.508;2023-01-04T01:46:30;33.17;;;16.13;;
37633;SDS011;32048;49.902;22.508;2023-01-04T01:49:01;36.00;;;18.33;;
37633;SDS011;32048;49.902;22.508;2023-01-04T01:51:32;33.50;;;16.97;;
37633;SDS011;32048;49.902;22.508;2023-01-04T01:54:21;38.43;;;17.80;;
37633;SDS011;32048;49.902;22.508;2023-01-04T01:56:52;37.00;;;18.33;;
37633;SDS011;32048;49.902;22.508;2023-01-04T01:59:23;31.63;;;17.83;;
37633;SDS011;32048;49.902;22.508;2023-01-04T02:01:51;34.20;;;17.70;;
37633;SDS011;32048;49.902;22.508;2023-01-04T02:04:19;37.00;;;17.67;;
37633;SDS011;32048;49.902;22.508;2023-01-04T02:06:49;44.03;;;19.13;;
37633;SDS011;32048;49.902;22.508;2023-01-04T02:09:21;29.70;;;16.37;;
37633;SDS011;32048;49.902;22.508;2023-01-04T02:11:48;31.07;;;16.57;;
37633;SDS011;32048;49.902;22.508;2023-01-04T02:14:16;34.33;;;17.27;;
37633;SDS011;32048;49.902;22.508;2023-01-04T02:33:51;36.70;;;16.80;;
37633;SDS011;32048;49.902;22.508;2023-01-04T02:36:42;35.63;;;18.73;;
37633;SDS011;32048;49.902;22.508;2023-01-04T02:39:14;37.00;;;18.93;;
37633;SDS011;32048;49.902;22.508;2023-01-04T02:44:47;37.45;;;18.50;;
37633;SDS011;32048;49.902;22.508;2023-01-04T02:47:29;44.77;;;21.10;;
37633;SDS011;32048;49.902;22.508;2023-01-04T02:50:23;40.27;;;18.97;;
37633;SDS011;32048;49.902;22.508;2023-01-04T03:01:09;42.97;;;18.60;;
37633;SDS011;32048;49.902;22.508;2023-01-04T03:13:02;41.97;;;20.50;;
37633;SDS011;32048;49.902;22.508;2023-01-04T03:15:57;37.60;;;20.53;;
37633;SDS011;32048;49.902;22.508;2023-01-04T03:18:32;44.30;;;19.10;;
37633;SDS011;32048;49.902;22.508;2023-01-04T03:21:03;40.90;;;20.13;;
37633;SDS011;32048;49.902;22.508;2023-01-04T03:23:35;36.70;;;20.00;;
37633;SDS011;32048;49.902;22.508;2023-01-04T03:26:27;38.33;;;19.50;;
37633;SDS011;32048;49.902;22.508;2023-01-04T03:32:27;43.03;;;21.27;;
37633;SDS011;32048;49.902;22.508;2023-01-04T03:35:26;45.57;;;22.43;;
37633;SDS011;32048;49.902;22.508;2023-01-04T03:41:33;44.22;;;20.63;;
37633;SDS011;32048;49.902;22.508;2023-01-04T03:51:00;43.53;;;22.13;;
37633;SDS011;32048;49.902;22.508;2023-01-04T03:53:34;51.00;;;22.13;;
37633;SDS011;32048;49.902;22.508;2023-01-04T03:56:07;48.37;;;22.83;;
37633;SDS011;32048;49.902;22.508;2023-01-04T03:58:37;48.37;;;22.50;;
37633;SDS011;32048;49.902;22.508;2023-01-04T04:01:05;55.00;;;24.03;;
37633;SDS011;32048;49.902;22.508;2023-01-04T04:03:32;44.03;;;22.87;;
37633;SDS011;32048;49.902;22.508;2023-01-04T04:06:18;48.50;;;23.03;;
37633;SDS011;32048;49.902;22.508;2023-01-04T04:09:04;47.47;;;22.43;;
37633;SDS011;32048;49.902;22.508;2023-01-04T04:11:31;46.63;;;21.70;;
37633;SDS011;32048;49.902;22.508;2023-01-04T04:13:59;45.87;;;21.93;;
37633;SDS011;32048;49.902;22.508;2023-01-04T04:16:26;53.87;;;26.17;;
37633;SDS011;32048;49.902;22.508;2023-01-04T04:18:54;62.17;;;23.70;;
37633;SDS011;32048;49.902;22.508;2023-01-04T04:21:21;58.00;;;22.87;;
37633;SDS011;32048;49.902;22.508;2023-01-04T04:23:48;50.10;;;23.00;;
37633;SDS011;32048;49.902;22.508;2023-01-04T04:26:16;47.87;;;20.10;;
37633;SDS011;32048;49.902;22.508;2023-01-04T04:28:43;43.30;;;20.10;;
37633;SDS011;32048;49.902;22.508;2023-01-04T04:31:10;44.17;;;20.53;;
37633;SDS011;32048;49.902;22.508;2023-01-04T04:33:38;47.17;;;21.43;;
37633;SDS011;32048;49.902;22.508;2023-01-04T04:36:06;50.67;;;22.88;;
37633;SDS011;32048;49.902;22.508;2023-01-04T04:38:34;42.88;;;22.65;;
37633;SDS011;32048;49.902;22.508;2023-01-04T04:41:05;52.80;;;24.40;;
37633;SDS011;32048;49.902;22.508;2023-01-04T04:43:55;57.60;;;25.23;;
37633;SDS011;32048;49.902;22.508;2023-01-04T04:46:23;64.30;;;26.15;;
37633;SDS011;32048;49.902;22.508;2023-01-04T04:48:50;57.07;;;25.23;;
37633;SDS011;32048;49.902;22.508;2023-01-04T04:51:18;61.23;;;25.67;;
37633;SDS011;32048;49.902;22.508;2023-01-04T04:53:45;66.30;;;28.50;;
37633;SDS011;32048;49.902;22.508;2023-01-04T04:56:12;59.93;;;27.37;;
37633;SDS011;32048;49.902;22.508;2023-01-04T04:58:39;52.53;;;23.87;;
37633;SDS011;32048;49.902;22.508;2023-01-04T05:01:06;54.57;;;25.10;;
37633;SDS011;32048;49.902;22.508;2023-01-04T05:03:34;51.13;;;22.63;;
37633;SDS011;32048;49.902;22.508;2023-01-04T05:06:02;55.23;;;22.50;;
37633;SDS011;32048;49.902;22.508;2023-01-04T05:08:29;57.33;;;24.20;;
37633;SDS011;32048;49.902;22.508;2023-01-04T05:10:56;57.63;;;23.97;;
37633;SDS011;32048;49.902;22.508;2023-01-04T05:13:23;57.73;;;23.60;;
37633;SDS011;32048;49.902;22.508;2023-01-04T05:15:51;57.20;;;23.27;;
37633;SDS011;32048;49.902;22.508;2023-01-04T05:18:20;44.40;;;19.02;;
37633;SDS011;32048;49.902;22.508;2023-01-04T05:20:48;36.97;;;17.70;;
37633;SDS011;32048;49.902;22.508;2023-01-04T05:23:16;46.23;;;21.67;;
37633;SDS011;32048;49.902;22.508;2023-01-04T05:25:45;49.87;;;22.57;;
37633;SDS011;32048;49.902;22.508;2023-01-04T05:28:17;43.50;;;21.23;;
37633;SDS011;32048;49.902;22.508;2023-01-04T05:30:44;47.47;;;20.77;;
37633;SDS011;32048;49.902;22.508;2023-01-04T05:33:17;41.53;;;19.90;;
37633;SDS011;32048;49.902;22.508;2023-01-04T05:35:47;48.13;;;21.30;;
37633;SDS011;32048;49.902;22.508;2023-01-04T05:38:15;43.00;;;21.63;;
37633;SDS011;32048;49.902;22.508;2023-01-04T05:40:43;43.07;;;20.93;;
37633;SDS011;32048;49.902;22.508;2023-01-04T05:43:10;36.67;;;18.43;;
37633;SDS011;32048;49.902;22.508;2023-01-04T05:45:39;43.70;;;21.42;;
37633;SDS011;32048;49.902;22.508;2023-01-04T05:48:09;46.10;;;20.00;;
37633;SDS011;32048;49.902;22.508;2023-01-04T05:50:36;62.00;;;26.60;;
37633;SDS011;32048;49.902;22.508;2023-01-04T05:53:04;82.90;;;34.23;;
37633;SDS011;32048;49.902;22.508;2023-01-04T05:57:59;55.40;;;23.57;;
37633;SDS011;32048;49.902;22.508;2023-01-04T06:00:27;52.17;;;22.67;;
37633;SDS011;32048;49.902;22.508;2023-01-04T06:02:54;85.27;;;32.83;;
37633;SDS011;32048;49.902;22.508;2023-01-04T06:05:23;81.95;;;31.00;;
37633;SDS011;32048;49.902;22.508;2023-01-04T06:07:51;145.87;;;54.97;;
37633;SDS011;32048;49.902;22.508;2023-01-04T06:10:18;131.37;;;49.20;;
37633;SDS011;32048;49.902;22.508;2023-01-04T06:12:46;137.63;;;55.03;;
37633;SDS011;32048;49.902;22.508;2023-01-04T06:15:14;125.53;;;48.08;;
37633;SDS011;32048;49.902;22.508;2023-01-04T06:17:41;104.57;;;39.53;;
37633;SDS011;32048;49.902;22.508;2023-01-04T06:20:08;126.50;;;48.87;;
37633;SDS011;32048;49.902;22.508;2023-01-04T06:22:36;157.50;;;60.73;;
37633;SDS011;32048;49.902;22.508;2023-01-04T06:25:04;102.03;;;39.20;;
37633;SDS011;32048;49.902;22.508;2023-01-04T06:27:31;106.57;;;43.13;;
37633;SDS011;32048;49.902;22.508;2023-01-04T06:29:58;96.63;;;39.00;;
37633;SDS011;32048;49.902;22.508;2023-01-04T06:32:25;124.50;;;48.27;;
37633;SDS011;32048;49.902;22.508;2023-01-04T06:34:52;82.90;;;37.40;;
37633;SDS011;32048;49.902;22.508;2023-01-04T06:37:19;68.80;;;29.63;;
37633;SDS011;32048;49.902;22.508;2023-01-04T06:39:46;70.33;;;32.17;;
37633;SDS011;32048;49.902;22.508;2023-01-04T06:42:13;87.40;;;37.03;;
37633;SDS011;32048;49.902;22.508;2023-01-04T06:44:59;74.17;;;33.57;;
37633;SDS011;32048;49.902;22.508;2023-01-04T06:47:26;75.60;;;30.90;;
37633;SDS011;32048;49.902;22.508;2023-01-04T06:49:54;69.53;;;33.03;;
37633;SDS011;32048;49.902;22.508;2023-01-04T06:52:21;47.70;;;22.73;;
37633;SDS011;32048;49.902;22.508;2023-01-04T06:54:48;40.20;;;20.63;;
37633;SDS011;32048;49.902;22.508;2023-01-04T06:57:15;48.37;;;23.07;;
37633;SDS011;32048;49.902;22.508;2023-01-04T06:59:42;71.43;;;32.43;;
37633;SDS011;32048;49.902;22.508;2023-01-04T07:02:12;66.40;;;29.83;;
37633;SDS011;32048;49.902;22.508;2023-01-04T07:04:41;62.73;;;29.07;;
37633;SDS011;32048;49.902;22.508;2023-01-04T07:07:09;50.72;;;22.98;;
37633;SDS011;32048;49.902;22.508;2023-01-04T07:09:37;49.08;;;20.92;;
37633;SDS011;32048;49.902;22.508;2023-01-04T07:12:04;49.13;;;23.50;;
37633;SDS011;32048;49.902;22.508;2023-01-04T07:14:32;52.50;;;24.80;;
37633;SDS011;32048;49.902;22.508;2023-01-04T07:16:59;49.73;;;24.17;;
37633;SDS011;32048;49.902;22.508;2023-01-04T07:19:26;41.77;;;23.83;;
37633;SDS011;32048;49.902;22.508;2023-01-04T07:21:53;33.27;;;20.20;;
37633;SDS011;32048;49.902;22.508;2023-01-04T07:24:21;30.23;;;16.00;;
37633;SDS011;32048;49.902;22.508;2023-01-04T07:26:55;20.97;;;13.10;;
37633;SDS011;32048;49.902;22.508;2023-01-04T07:29:24;22.23;;;12.77;;
37633;SDS011;32048;49.902;22.508;2023-01-04T07:31:52;17.40;;;9.67;;
37633;SDS011;32048;49.902;22.508;2023-01-04T07:34:20;20.73;;;9.80;;
37633;SDS011;32048;49.902;22.508;2023-01-04T07:36:49;19.53;;;10.63;;
37633;SDS011;32048;49.902;22.508;2023-01-04T07:39:17;22.60;;;11.03;;
37633;SDS011;32048;49.902;22.508;2023-01-04T07:41:45;19.63;;;9.68;;
37633;SDS011;32048;49.902;22.508;2023-01-04T07:44:13;18.42;;;9.48;;
37633;SDS011;32048;49.902;22.508;2023-01-04T07:46:41;18.95;;;9.23;;
37633;SDS011;32048;49.902;22.508;2023-01-04T07:49:13;18.40;;;9.88;;
37633;SDS011;32048;49.902;22.508;2023-01-04T07:51:43;16.30;;;8.95;;
37633;SDS011;32048;49.902;22.508;2023-01-04T07:54:13;14.73;;;8.70;;
37633;SDS011;32048;49.902;22.508;2023-01-04T07:56:41;13.55;;;8.65;;
37633;SDS011;32048;49.902;22.508;2023-01-04T07:59:09;13.60;;;7.35;;
37633;SDS011;32048;49.902;22.508;2023-01-04T08:01:36;14.07;;;6.70;;
37633;SDS011;32048;49.902;22.508;2023-01-04T08:04:05;11.70;;;6.25;;
37633;SDS011;32048;49.902;22.508;2023-01-04T08:06:33;10.65;;;6.13;;
37633;SDS011;32048;49.902;22.508;2023-01-04T08:09:02;11.30;;;6.10;;
37633;SDS011;32048;49.902;22.508;2023-01-04T08:11:30;12.57;;;6.15;;
37633;SDS011;32048;49.902;22.508;2023-01-04T08:13:57;11.60;;;5.95;;
37633;SDS011;32048;49.902;22.508;2023-01-04T08:16:31;10.13;;;6.10;;
37633;SDS011;32048;49.902;22.508;2023-01-04T08:19:06;10.05;;;5.80;;
37633;SDS011;32048;49.902;22.508;2023-01-04T08:21:37;16.17;;;8.45;;
37633;SDS011;32048;49.902;22.508;2023-01-04T08:24:05;9.73;;;5.50;;
37633;SDS011;32048;49.902;22.508;2023-01-04T08:26:32;10.43;;;6.50;;
37633;SDS011;32048;49.902;22.508;2023-01-04T08:29:00;12.48;;;6.20;;
37633;SDS011;32048;49.902;22.508;2023-01-04T08:31:28;11.32;;;6.20;;
37633;SDS011;32048;49.902;22.508;2023-01-04T08:33:57;12.13;;;7.00;;
37633;SDS011;32048;49.902;22.508;2023-01-04T08:36:30;10.90;;;5.25;;
37633;SDS011;32048;49.902;22.508;2023-01-04T08:39:00;9.57;;;5.47;;
37633;SDS011;32048;49.902;22.508;2023-01-04T08:41:31;10.18;;;5.32;;
37633;SDS011;32048;49.902;22.508;2023-01-04T08:44:20;9.50;;;5.63;;
37633;SDS011;32048;49.902;22.508;2023-01-04T08:46:49;8.85;;;4.85;;
37633;SDS011;32048;49.902;22.508;2023-01-04T08:49:17;8.05;;;4.95;;
37633;SDS011;32048;49.902;22.508;2023-01-04T08:51:44;7.25;;;4.38;;
37633;SDS011;32048;49.902;22.508;2023-01-04T08:54:12;12.45;;;5.75;;
37633;SDS011;32048;49.902;22.508;2023-01-04T08:56:39;9.93;;;5.57;;
37633;SDS011;32048;49.902;22.508;2023-01-04T08:59:08;10.10;;;5.20;;
37633;SDS011;32048;49.902;22.508;2023-01-04T09:01:37;10.50;;;6.20;;
37633;SDS011;32048;49.902;22.508;2023-01-04T09:04:05;9.03;;;5.60;;
37633;SDS011;32048;49.902;22.508;2023-01-04T09:06:33;11.05;;;5.45;;
37633;SDS011;32048;49.902;22.508;2023-01-04T09:09:00;9.35;;;5.40;;
37633;SDS011;32048;49.902;22.508;2023-01-04T09:11:27;8.88;;;5.03;;
37633;SDS011;32048;49.902;22.508;2023-01-04T09:13:58;11.52;;;5.03;;
37633;SDS011;32048;49.902;22.508;2023-01-04T09:16:35;11.40;;;5.53;;
37633;SDS011;32048;49.902;22.508;2023-01-04T09:19:04;10.23;;;5.72;;
37633;SDS011;32048;49.902;22.508;2023-01-04T09:21:31;8.43;;;5.07;;
37633;SDS011;32048;49.902;22.508;2023-01-04T09:23:59;9.30;;;5.00;;
37633;SDS011;32048;49.902;22.508;2023-01-04T09:26:25;11.07;;;5.45;;
37633;SDS011;32048;49.902;22.508;2023-01-04T09:28:53;10.32;;;5.43;;
37633;SDS011;32048;49.902;22.508;2023-01-04T09:31:23;11.60;;;6.15;;
37633;SDS011;32048;49.902;22.508;2023-01-04T09:33:52;11.45;;;5.75;;
37633;SDS011;32048;49.902;22.508;2023-01-04T09:36:40;10.88;;;5.50;;
37633;SDS011;32048;49.902;22.508;2023-01-04T09:39:07;10.05;;;6.05;;
37633;SDS011;32048;49.902;22.508;2023-01-04T09:42:02;9.35;;;5.65;;
37633;SDS011;32048;49.902;22.508;2023-01-04T09:53:32;10.70;;;5.38;;
37633;SDS011;32048;49.902;22.508;2023-01-04T09:56:05;10.48;;;5.25;;
37633;SDS011;32048;49.902;22.508;2023-01-04T09:58:37;10.05;;;6.63;;
37633;SDS011;32048;49.902;22.508;2023-01-04T10:01:10;12.05;;;9.35;;
37633;SDS011;32048;49.902;22.508;2023-01-04T10:06:33;9.38;;;5.15;;
37633;SDS011;32048;49.902;22.508;2023-01-04T10:09:02;9.77;;;5.15;;
37633;SDS011;32048;49.902;22.508;2023-01-04T10:17:03;10.52;;;5.57;;
37633;SDS011;32048;49.902;22.508;2023-01-04T10:28:34;11.32;;;5.78;;
37633;SDS011;32048;49.902;22.508;2023-01-04T10:31:11;8.55;;;4.72;;
37633;SDS011;32048;49.902;22.508;2023-01-04T10:36:59;7.28;;;5.03;;
37633;SDS011;32048;49.902;22.508;2023-01-04T10:39:31;9.88;;;5.55;;
37633;SDS011;32048;49.902;22.508;2023-01-04T10:42:09;9.20;;;5.57;;
37633;SDS011;32048;49.902;22.508;2023-01-04T10:47:46;8.85;;;5.65;;
37633;SDS011;32048;49.902;22.508;2023-01-04T10:53:40;6.90;;;4.45;;
37633;SDS011;32048;49.902;22.508;2023-01-04T10:59:04;10.48;;;5.75;;
37633;SDS011;32048;49.902;22.508;2023-01-04T11:01:44;6.05;;;4.40;;
37633;SDS011;32048;49.902;22.508;2023-01-04T11:12:38;7.82;;;4.43;;
37633;SDS011;32048;49.902;22.508;2023-01-04T11:15:05;10.55;;;4.88;;
37633;SDS011;32048;49.902;22.508;2023-01-04T11:17:33;8.05;;;4.68;;
37633;SDS011;32048;49.902;22.508;2023-01-04T11:20:01;8.57;;;4.53;;
37633;SDS011;32048;49.902;22.508;2023-01-04T11:22:30;8.57;;;5.07;;
37633;SDS011;32048;49.902;22.508;2023-01-04T11:25:04;7.55;;;4.78;;
37633;SDS011;32048;49.902;22.508;2023-01-04T11:27:57;10.93;;;5.28;;
37633;SDS011;32048;49.902;22.508;2023-01-04T11:39:06;8.65;;;5.38;;
37633;SDS011;32048;49.902;22.508;2023-01-04T11:41:53;11.70;;;5.18;;
37633;SDS011;32048;49.902;22.508;2023-01-04T11:44:29;7.60;;;4.85;;
37633;SDS011;32048;49.902;22.508;2023-01-04T11:47:03;11.35;;;5.90;;
37633;SDS011;32048;49.902;22.508;2023-01-04T11:49:35;8.55;;;5.32;;
37633;SDS011;32048;49.902;22.508;2023-01-04T11:52:07;9.32;;;5.05;;
37633;SDS011;32048;49.902;22.508;2023-01-04T11:54:52;10.15;;;4.90;;
37633;SDS011;32048;49.902;22.508;2023-01-04T11:57:20;10.18;;;5.00;;
37633;SDS011;32048;49.902;22.508;2023-01-04T12:00:05;6.95;;;4.47;;
37633;SDS011;32048;49.902;22.508;2023-01-04T12:02:34;7.47;;;4.38;;
37633;SDS011;32048;49.902;22.508;2023-01-04T12:05:22;9.18;;;4.95;;
37633;SDS011;32048;49.902;22.508;2023-01-04T12:07:56;7.95;;;5.00;;
37633;SDS011;32048;49.902;22.508;2023-01-04T12:10:25;6.55;;;4.53;;
37633;SDS011;32048;49.902;22.508;2023-01-04T12:12:54;5.13;;;3.75;;
37633;SDS011;32048;49.902;22.508;2023-01-04T12:15:27;10.32;;;5.70;;
37633;SDS011;32048;49.902;22.508;2023-01-04T12:18:06;15.82;;;7.38;;
37633;SDS011;32048;49.902;22.508;2023-01-04T12:20:42;34.75;;;16.15;;
37633;SDS011;32048;49.902;22.508;2023-01-04T12:23:10;17.20;;;9.10;;
37633;SDS011;32048;49.902;22.508;2023-01-04T12:25:40;14.35;;;7.20;;
37633;SDS011;32048;49.902;22.508;2023-01-04T12:28:33;10.93;;;6.30;;
37633;SDS011;32048;49.902;22.508;2023-01-04T12:36:55;10.40;;;5.53;;
37633;SDS011;32048;49.902;22.508;2023-01-04T12:42:09;10.48;;;6.22;;
37633;SDS011;32048;49.902;22.508;2023-01-04T13:01:27;16.05;;;8.70;;
37633;SDS011;32048;49.902;22.508;2023-01-04T13:03:59;20.58;;;9.65;;
37633;SDS011;32048;49.902;22.508;2023-01-04T13:06:47;41.17;;;22.33;;
37633;SDS011;32048;49.902;22.508;2023-01-04T13:09:18;46.92;;;23.08;;
37633;SDS011;32048;49.902;22.508;2023-01-04T13:14:45;39.30;;;21.25;;
37633;SDS011;32048;49.902;22.508;2023-01-04T13:17:17;42.80;;;23.85;;
37633;SDS011;32048;49.902;22.508;2023-01-04T13:19:47;24.65;;;14.07;;
37633;SDS011;32048;49.902;22.508;2023-01-04T13:22:49;25.42;;;13.75;;
37633;SDS011;32048;49.902;22.508;2023-01-04T13:32:57;13.45;;;6.93;;
37633;SDS011;32048;49.902;22.508;2023-01-04T13:36:01;17.73;;;10.02;;
37633;SDS011;32048;49.902;22.508;2023-01-04T13:38:35;24.15;;;10.90;;
37633;SDS011;32048;49.902;22.508;2023-01-04T13:41:15;23.52;;;11.65;;
37633;SDS011;32048;49.902;22.508;2023-01-04T13:44:04;19.65;;;11.15;;
37633;SDS011;32048;49.902;22.508;2023-01-04T13:46:42;18.15;;;9.35;;
37633;SDS011;32048;49.902;22.508;2023-01-04T13:49:10;18.42;;;8.40;;
37633;SDS011;32048;49.902;22.508;2023-01-04T13:51:42;11.40;;;6.50;;
37633;SDS011;32048;49.902;22.508;2023-01-04T13:54:19;14.35;;;8.77;;
37633;SDS011;32048;49.902;22.508;2023-01-04T13:56:48;21.60;;;9.18;;
37633;SDS011;32048;49.902;22.508;2023-01-04T13:59:21;18.48;;;9.70;;
37633;SDS011;32048;49.902;22.508;2023-01-04T14:01:49;15.00;;;8.88;;
37633;SDS011;32048;49.902;22.508;2023-01-04T14:04:21;10.15;;;6.47;;
37633;SDS011;32048;49.902;22.508;2023-01-04T14:06:52;10.77;;;6.13;;
37633;SDS011;32048;49.902;22.508;2023-01-04T14:09:24;10.88;;;6.22;;
37633;SDS011;32048;49.902;22.508;2023-01-04T14:11:55;12.40;;;6.72;;
37633;SDS011;32048;49.902;22.508;2023-01-04T14:17:18;16.20;;;7.80;;
37633;SDS011;32048;49.902;22.508;2023-01-04T14:19:47;18.50;;;10.00;;
37633;SDS011;32048;49.902;22.508;2023-01-04T14:24:47;28.98;;;12.20;;
37633;SDS011;32048;49.902;22.508;2023-01-04T14:27:40;27.73;;;11.88;;
37633;SDS011;32048;49.902;22.508;2023-01-04T14:32:52;21.33;;;10.23;;
37633;SDS011;32048;49.902;22.508;2023-01-04T14:35:35;18.67;;;9.73;;
37633;SDS011;32048;49.902;22.508;2023-01-04T14:38:16;15.27;;;7.73;;
37633;SDS011;32048;49.902;22.508;2023-01-04T14:40:44;16.58;;;8.70;;
37633;SDS011;32048;49.902;22.508;2023-01-04T14:46:21;11.85;;;7.57;;
37633;SDS011;32048;49.902;22.508;2023-01-04T14:48:49;12.52;;;7.63;;
37633;SDS011;32048;49.902;22.508;2023-01-04T14:51:17;34.47;;;14.57;;
37633;SDS011;32048;49.902;22.508;2023-01-04T14:53:47;24.40;;;12.55;;
37633;SDS011;32048;49.902;22.508;2023-01-04T14:56:15;14.95;;;8.50;;
37633;SDS011;32048;49.902;22.508;2023-01-04T14:58:44;18.70;;;10.93;;
37633;SDS011;32048;49.902;22.508;2023-01-04T15:01:11;16.67;;;9.25;;
37633;SDS011;32048;49.902;22.508;2023-01-04T15:03:39;17.23;;;8.73;;
37633;SDS011;32048;49.902;22.508;2023-01-04T15:06:06;14.67;;;7.80;;
37633;SDS011;32048;49.902;22.508;2023-01-04T15:08:33;20.88;;;11.38;;
37633;SDS011;32048;49.902;22.508;2023-01-04T15:11:00;25.30;;;11.23;;
37633;SDS011;32048;49.902;22.508;2023-01-04T15:13:28;20.13;;;11.30;;
37633;SDS011;32048;49.902;22.508;2023-01-04T15:16:04;34.43;;;16.63;;
37633;SDS011;32048;49.902;22.508;2023-01-04T15:18:33;12.10;;;6.95;;
37633;SDS011;32048;49.902;22.508;2023-01-04T15:21:01;17.57;;;8.27;;
37633;SDS011;32048;49.902;22.508;2023-01-04T15:25:56;15.13;;;8.10;;
37633;SDS011;32048;49.902;22.508;2023-01-04T15:28:23;12.45;;;6.80;;
37633;SDS011;32048;49.902;22.508;2023-01-04T15:30:51;12.88;;;8.30;;
37633;SDS011;32048;49.902;22.508;2023-01-04T15:33:19;15.23;;;8.73;;
37633;SDS011;32048;49.902;22.508;2023-01-04T15:35:46;17.17;;;8.70;;
37633;SDS011;32048;49.902;22.508;2023-01-04T15:38:13;16.17;;;8.60;;
37633;SDS011;32048;49.902;22.508;2023-01-04T15:40:44;20.77;;;12.00;;
37633;SDS011;32048;49.902;22.508;2023-01-04T15:43:11;18.50;;;10.00;;
37633;SDS011;32048;49.902;22.508;2023-01-04T15:45:38;14.87;;;8.80;;
37633;SDS011;32048;49.902;22.508;2023-01-04T15:48:06;15.32;;;8.15;;
37633;SDS011;32048;49.902;22.508;2023-01-04T15:50:36;15.68;;;8.77;;
37633;SDS011;32048;49.902;22.508;2023-01-04T15:53:06;15.00;;;8.57;;
37633;SDS011;32048;49.902;22.508;2023-01-04T15:55:34;21.37;;;9.87;;
37633;SDS011;32048;49.902;22.508;2023-01-04T16:00:30;13.82;;;8.13;;
37633;SDS011;32048;49.902;22.508;2023-01-04T16:02:58;14.23;;;8.07;;
37633;SDS011;32048;49.902;22.508;2023-01-04T16:05:26;17.47;;;8.43;;
37633;SDS011;32048;49.902;22.508;2023-01-04T16:07:53;21.07;;;10.47;;
37633;SDS011;32048;49.902;22.508;2023-01-04T16:10:20;22.00;;;9.80;;
37633;SDS011;32048;49.902;22.508;2023-01-04T16:12:48;18.63;;;10.30;;
37633;SDS011;32048;49.902;22.508;2023-01-04T16:15:22;20.40;;;10.13;;
37633;SDS011;32048;49.902;22.508;2023-01-04T16:17:49;17.03;;;9.63;;
37633;SDS011;32048;49.902;22.508;2023-01-04T16:20:17;16.80;;;9.13;;
37633;SDS011;32048;49.902;22.508;2023-01-04T16:22:45;22.33;;;11.17;;
37633;SDS011;32048;49.902;22.508;2023-01-04T16:25:12;21.50;;;12.03;;
37633;SDS011;32048;49.902;22.508;2023-01-04T16:27:40;28.60;;;14.17;;
37633;SDS011;32048;49.902;22.508;2023-01-04T16:30:08;27.33;;;11.67;;
37633;SDS011;32048;49.902;22.508;2023-01-04T16:32:40;20.02;;;10.20;;
37633;SDS011;32048;49.902;22.508;2023-01-04T16:35:09;18.13;;;9.57;;
37633;SDS011;32048;49.902;22.508;2023-01-04T16:37:37;20.75;;;9.20;;
37633;SDS011;32048;49.902;22.508;2023-01-04T16:40:04;16.17;;;8.63;;
37633;SDS011;32048;49.902;22.508;2023-01-04T16:42:35;17.37;;;9.73;;
37633;SDS011;32048;49.902;22.508;2023-01-04T16:45:03;18.13;;;8.88;;
37633;SDS011;32048;49.902;22.508;2023-01-04T16:47:40;14.43;;;7.50;;
37633;SDS011;32048;49.902;22.508;2023-01-04T16:50:09;15.37;;;8.17;;
37633;SDS011;32048;49.902;22.508;2023-01-04T16:52:38;23.90;;;9.98;;
37633;SDS011;32048;49.902;22.508;2023-01-04T16:55:05;20.38;;;11.25;;
37633;SDS011;32048;49.902;22.508;2023-01-04T16:57:33;12.10;;;7.67;;
37633;SDS011;32048;49.902;22.508;2023-01-04T17:00:00;12.73;;;7.13;;
37633;SDS011;32048;49.902;22.508;2023-01-04T17:02:27;11.70;;;7.17;;
37633;SDS011;32048;49.902;22.508;2023-01-04T17:04:54;12.37;;;7.07;;
37633;SDS011;32048;49.902;22.508;2023-01-04T17:07:25;13.40;;;7.40;;
37633;SDS011;32048;49.902;22.508;2023-01-04T17:09:58;10.50;;;6.20;;
37633;SDS011;32048;49.902;22.508;2023-01-04T17:12:27;12.82;;;6.78;;
37633;SDS011;32048;49.902;22.508;2023-01-04T17:15:14;12.68;;;6.90;;
37633;SDS011;32048;49.902;22.508;2023-01-04T17:18:02;16.02;;;8.05;;
37633;SDS011;32048;49.902;22.508;2023-01-04T17:20:29;11.52;;;6.13;;
37633;SDS011;32048;49.902;22.508;2023-01-04T17:22:57;11.40;;;7.00;;
37633;SDS011;32048;49.902;22.508;2023-01-04T17:25:23;13.85;;;8.27;;